createdAt,value
2023-08-05T00:01:49.413Z,4.77
2023-08-05T00:06:43.273Z,4.60
2023-08-05T00:09:10.161Z,4.93
2023-08-05T00:11:37.452Z,5.00
2023-08-05T00:14:04.277Z,4.60
2023-08-05T00:16:31.237Z,4.80
2023-08-05T00:18:58.047Z,4.83
2023-08-05T00:21:24.859Z,5.47
2023-08-05T00:23:51.733Z,4.80
2023-08-05T00:26:18.688Z,4.50
2023-08-05T00:28:45.516Z,4.70
2023-08-05T00:31:12.374Z,5.30
2023-08-05T00:33:39.191Z,4.60
2023-08-05T00:36:06.075Z,4.80
2023-08-05T00:38:32.928Z,4.63
2023-08-05T00:40:59.945Z,5.17
2023-08-05T00:43:26.749Z,5.57
2023-08-05T00:45:53.704Z,5.10
2023-08-05T00:48:20.726Z,5.00
2023-08-05T00:50:47.662Z,5.07
2023-08-05T00:53:15.477Z,4.60
2023-08-05T00:55:42.810Z,4.40
2023-08-05T00:58:11.672Z,5.20
2023-08-05T01:00:38.483Z,4.73
2023-08-05T01:03:05.458Z,5.07
2023-08-05T01:05:32.601Z,5.77
2023-08-05T01:08:00.994Z,5.07
2023-08-05T01:10:27.901Z,5.13
2023-08-05T01:12:54.957Z,5.40
2023-08-05T01:15:21.948Z,5.43
2023-08-05T01:17:51.585Z,5.43
2023-08-05T01:20:21.066Z,5.80
2023-08-05T01:22:52.595Z,5.67
2023-08-05T01:25:46.731Z,5.20
2023-08-05T01:28:16.440Z,5.80
2023-08-05T01:30:44.829Z,5.50
2023-08-05T01:33:13.482Z,4.87
2023-08-05T01:35:40.293Z,5.57
2023-08-05T01:38:07.126Z,5.60
2023-08-05T01:40:33.964Z,5.00
2023-08-05T01:43:00.801Z,5.07
2023-08-05T01:45:27.727Z,5.03
2023-08-05T01:47:54.588Z,5.40
2023-08-05T01:50:22.044Z,6.90
2023-08-05T01:52:52.196Z,5.93
2023-08-05T01:55:19.206Z,5.60
2023-08-05T01:57:47.031Z,5.23
2023-08-05T02:00:14.329Z,5.70
2023-08-05T02:02:41.392Z,5.00
2023-08-05T02:05:09.044Z,4.40
2023-08-05T02:07:36.025Z,5.00
2023-08-05T02:10:03.027Z,5.10
2023-08-05T02:12:30.035Z,4.93
2023-08-05T02:14:56.994Z,5.00
2023-08-05T02:17:23.846Z,4.80
2023-08-05T02:19:51.217Z,5.00
2023-08-05T02:22:18.086Z,5.00
2023-08-05T02:24:44.887Z,5.00
2023-08-05T02:27:13.174Z,4.67
2023-08-05T02:29:39.989Z,5.23
2023-08-05T02:32:07.123Z,4.53
2023-08-05T02:34:34.053Z,4.57
2023-08-05T02:37:00.856Z,4.83
2023-08-05T02:39:28.054Z,5.20
2023-08-05T02:41:54.862Z,4.80
2023-08-05T02:44:22.996Z,4.73
2023-08-05T02:46:50.158Z,4.73
2023-08-05T02:49:17.648Z,5.27
2023-08-05T02:51:44.434Z,5.03
2023-08-05T02:54:11.274Z,5.03
2023-08-05T02:56:38.763Z,4.27
2023-08-05T02:59:05.715Z,4.83
2023-08-05T03:01:32.583Z,5.47
2023-08-05T03:03:59.406Z,5.10
2023-08-05T03:06:26.205Z,6.37
2023-08-05T03:08:53.017Z,5.00
2023-08-05T03:11:19.970Z,5.33
2023-08-05T03:13:47.091Z,5.10
2023-08-05T03:16:15.006Z,4.47
2023-08-05T03:19:02.355Z,5.03
2023-08-05T03:21:31.093Z,4.83
2023-08-05T03:23:59.605Z,5.67
2023-08-05T03:26:28.410Z,5.13
2023-08-05T03:29:00.571Z,5.00
2023-08-05T03:31:29.013Z,5.27
2023-08-05T03:33:56.415Z,4.70
2023-08-05T03:36:24.713Z,5.57
2023-08-05T03:38:52.916Z,5.13
2023-08-05T03:41:19.780Z,5.93
2023-08-05T03:43:46.737Z,5.47
2023-08-05T03:46:13.582Z,6.33
2023-08-05T03:48:40.566Z,5.33
2023-08-05T03:51:07.413Z,5.80
2023-08-05T03:53:34.788Z,5.47
2023-08-05T03:56:02.204Z,5.40
2023-08-05T03:58:29.518Z,6.03
2023-08-05T04:00:56.406Z,7.13
2023-08-05T04:03:24.077Z,6.23
2023-08-05T04:05:51.070Z,6.13
2023-08-05T04:08:19.370Z,6.37
2023-08-05T04:10:46.326Z,6.00
2023-08-05T04:13:13.198Z,6.67
2023-08-05T04:15:41.107Z,5.70
2023-08-05T04:18:08.640Z,6.17
2023-08-05T04:20:37.310Z,5.80
2023-08-05T04:23:07.029Z,6.53
2023-08-05T04:25:34.088Z,6.90
2023-08-05T04:28:01.051Z,6.17
2023-08-05T04:30:28.077Z,6.97
2023-08-05T04:32:54.920Z,6.97
2023-08-05T04:35:21.731Z,6.40
2023-08-05T04:37:48.770Z,6.77
2023-08-05T04:40:15.737Z,6.87
2023-08-05T04:42:42.642Z,7.83
2023-08-05T04:45:10.196Z,6.83
2023-08-05T04:47:37.186Z,6.70
2023-08-05T04:50:04.403Z,7.00
2023-08-05T04:52:31.577Z,7.07
2023-08-05T04:54:58.641Z,7.87
2023-08-05T04:57:25.591Z,7.53
2023-08-05T04:59:52.489Z,7.67
2023-08-05T05:02:19.819Z,8.07
2023-08-05T05:04:46.787Z,7.93
2023-08-05T05:07:13.610Z,7.93
2023-08-05T05:09:40.521Z,8.67
2023-08-05T05:12:07.668Z,8.53
2023-08-05T05:14:34.577Z,8.30
2023-08-05T05:17:01.496Z,8.37
2023-08-05T05:19:28.371Z,8.07
2023-08-05T05:21:56.284Z,7.87
2023-08-05T05:24:24.431Z,7.87
2023-08-05T05:26:51.385Z,9.20
2023-08-05T05:29:22.021Z,8.73
2023-08-05T05:31:48.849Z,7.67
2023-08-05T05:34:15.870Z,7.97
2023-08-05T05:36:42.699Z,8.03
2023-08-05T05:39:09.848Z,8.60
2023-08-05T05:41:36.658Z,8.40
2023-08-05T05:44:05.233Z,8.00
2023-08-05T05:46:33.430Z,8.03
2023-08-05T05:49:00.524Z,8.40
2023-08-05T05:51:27.352Z,8.53
2023-08-05T05:53:54.292Z,7.87
2023-08-05T05:56:21.106Z,8.10
2023-08-05T05:58:47.919Z,7.67
2023-08-05T06:01:15.090Z,8.33
2023-08-05T06:03:43.439Z,8.00
2023-08-05T06:06:10.490Z,8.37
2023-08-05T06:08:37.429Z,9.53
2023-08-05T06:11:04.747Z,9.80
2023-08-05T06:13:32.057Z,9.87
2023-08-05T06:15:59.012Z,10.10
2023-08-05T06:18:25.953Z,11.17
2023-08-05T06:20:52.748Z,12.33
2023-08-05T06:23:19.629Z,12.13
2023-08-05T06:25:47.261Z,13.13
2023-08-05T06:28:14.257Z,13.97
2023-08-05T06:30:47.570Z,12.33
2023-08-05T06:33:14.648Z,14.33
2023-08-05T06:35:41.871Z,12.63
2023-08-05T06:38:08.738Z,13.90
2023-08-05T06:40:35.594Z,14.50
2023-08-05T06:43:02.571Z,14.73
2023-08-05T06:45:29.437Z,14.63
2023-08-05T06:47:56.346Z,16.17
2023-08-05T06:50:23.190Z,14.20
2023-08-05T06:52:49.962Z,16.67
2023-08-05T06:55:19.973Z,16.20
2023-08-05T06:57:49.685Z,16.60
2023-08-05T07:00:18.015Z,16.50
2023-08-05T07:02:45.021Z,16.07
2023-08-05T07:05:12.039Z,17.80
2023-08-05T07:07:41.171Z,14.63
2023-08-05T07:10:10.548Z,16.93
2023-08-05T07:12:37.586Z,17.77
2023-08-05T07:15:05.450Z,17.43
2023-08-05T07:17:33.048Z,16.10
2023-08-05T07:20:00.393Z,16.37
2023-08-05T07:22:27.462Z,17.10
2023-08-05T07:24:55.962Z,17.27
2023-08-05T07:27:23.231Z,16.47
2023-08-05T07:29:50.202Z,16.63
2023-08-05T07:32:17.149Z,15.67
2023-08-05T07:34:44.892Z,15.87
2023-08-05T07:37:14.611Z,16.17
2023-08-05T07:39:46.901Z,14.97
2023-08-05T07:42:16.207Z,14.37
2023-08-05T07:44:43.838Z,14.63
2023-08-05T07:47:11.072Z,15.03
2023-08-05T07:49:38.832Z,13.90
2023-08-05T07:52:08.829Z,14.20
2023-08-05T07:54:35.708Z,13.23
2023-08-05T07:57:02.864Z,13.80
2023-08-05T07:59:29.793Z,12.30
2023-08-05T08:01:57.388Z,14.17
2023-08-05T08:04:24.358Z,13.37
2023-08-05T08:06:51.425Z,14.30
2023-08-05T08:09:18.420Z,14.47
2023-08-05T08:11:45.888Z,13.50
2023-08-05T08:14:12.728Z,13.50
2023-08-05T08:16:39.566Z,12.53
2023-08-05T08:19:07.038Z,13.17
2023-08-05T08:21:33.883Z,14.27
2023-08-05T08:24:00.687Z,14.97
2023-08-05T08:26:27.659Z,13.83
2023-08-05T08:28:54.555Z,15.53
2023-08-05T08:31:21.420Z,13.57
2023-08-05T08:33:48.307Z,13.93
2023-08-05T08:36:15.330Z,13.50
2023-08-05T08:38:42.152Z,13.20
2023-08-05T08:41:09.263Z,11.70
2023-08-05T08:43:36.160Z,10.03
2023-08-05T08:46:06.293Z,10.33
2023-08-05T08:48:38.891Z,10.30
2023-08-05T08:51:08.276Z,8.80
2023-08-05T08:53:35.628Z,9.97
2023-08-05T08:56:02.909Z,9.20
2023-08-05T08:58:29.785Z,9.47
2023-08-05T09:00:58.146Z,8.37
2023-08-05T09:03:26.324Z,7.87
2023-08-05T09:06:00.382Z,7.50
2023-08-05T09:08:27.972Z,7.57
2023-08-05T09:10:54.867Z,8.33
2023-08-05T09:13:22.386Z,7.73
2023-08-05T09:15:49.503Z,8.30
2023-08-05T09:18:16.478Z,9.37
2023-08-05T09:20:43.505Z,9.07
2023-08-05T09:23:11.982Z,8.87
2023-08-05T09:25:41.785Z,8.00
2023-08-05T09:28:09.353Z,9.80
2023-08-05T09:30:36.432Z,10.00
2023-08-05T09:33:04.200Z,8.63
2023-08-05T09:35:31.161Z,8.87
2023-08-05T09:37:58.218Z,8.23
2023-08-05T09:40:27.161Z,8.30
2023-08-05T09:42:58.296Z,8.63
2023-08-05T09:45:26.507Z,9.73
2023-08-05T09:48:04.706Z,8.40
2023-08-05T09:50:38.346Z,8.80
2023-08-05T09:53:10.410Z,8.83
2023-08-05T09:55:38.552Z,8.80
2023-08-05T09:58:09.526Z,8.37
2023-08-05T10:00:38.674Z,9.10
2023-08-05T10:03:08.913Z,9.03
2023-08-05T10:05:36.806Z,9.40
2023-08-05T10:08:06.824Z,8.67
2023-08-05T10:10:36.153Z,9.57
2023-08-05T10:13:09.984Z,8.93
2023-08-05T10:15:41.531Z,8.53
2023-08-05T10:18:10.323Z,9.07
2023-08-05T10:20:40.230Z,8.60
2023-08-05T10:23:09.436Z,9.43
2023-08-05T10:25:47.788Z,8.70
2023-08-05T10:28:26.956Z,8.93
2023-08-05T10:30:56.072Z,8.80
2023-08-05T10:33:23.423Z,8.13
2023-08-05T10:35:51.017Z,9.07
2023-08-05T10:38:22.821Z,8.70
2023-08-05T10:41:05.636Z,8.10
2023-08-05T10:43:39.971Z,8.63
2023-08-05T10:46:06.989Z,8.13
2023-08-05T10:48:58.015Z,7.87
2023-08-05T10:51:26.725Z,7.30
2023-08-05T10:53:56.571Z,7.83
2023-08-05T10:56:41.458Z,6.97
2023-08-05T10:59:08.329Z,7.00
2023-08-05T11:01:57.288Z,7.53
2023-08-05T11:04:32.718Z,6.23
2023-08-05T11:07:01.739Z,6.90
2023-08-05T11:09:33.394Z,6.97
2023-08-05T11:12:00.338Z,7.03
2023-08-05T11:14:28.522Z,7.60
2023-08-05T11:17:03.667Z,6.97
2023-08-05T11:19:51.123Z,6.20
2023-08-05T11:22:29.308Z,6.20
2023-08-05T11:25:01.347Z,6.20
2023-08-05T11:27:35.857Z,6.70
2023-08-05T11:30:16.297Z,6.80
2023-08-05T11:32:50.262Z,7.97
2023-08-05T11:35:17.574Z,8.43
2023-08-05T11:37:44.405Z,9.47
2023-08-05T11:40:12.446Z,9.73
2023-08-05T11:42:41.162Z,10.90
2023-08-05T11:45:12.331Z,11.57
2023-08-05T11:47:40.511Z,11.23
2023-08-05T11:50:08.494Z,10.73
2023-08-05T11:52:35.490Z,11.30
2023-08-05T11:55:05.558Z,11.33
2023-08-05T11:57:33.731Z,11.07
2023-08-05T12:00:06.057Z,9.90
2023-08-05T12:02:35.499Z,9.60
2023-08-05T12:05:05.908Z,8.27
2023-08-05T12:07:41.271Z,8.80
2023-08-05T12:10:13.658Z,8.63
2023-08-05T12:12:53.281Z,9.17
2023-08-05T12:15:29.200Z,8.47
2023-08-05T12:18:02.154Z,8.13
2023-08-05T12:20:31.618Z,7.20
2023-08-05T12:22:59.899Z,7.23
2023-08-05T12:25:27.831Z,6.80
2023-08-05T12:27:55.989Z,5.73
2023-08-05T12:30:23.163Z,5.03
2023-08-05T12:32:50.106Z,5.07
2023-08-05T12:35:17.053Z,5.20
2023-08-05T12:37:44.418Z,5.22
2023-08-05T12:40:12.652Z,5.63
2023-08-05T12:42:40.469Z,4.50
2023-08-05T12:45:10.314Z,5.00
2023-08-05T12:47:39.481Z,4.53
2023-08-05T12:50:07.728Z,4.57
2023-08-05T12:52:35.088Z,4.23
2023-08-05T12:55:02.630Z,4.70
2023-08-05T12:57:29.857Z,3.90
2023-08-05T12:59:56.767Z,3.70
2023-08-05T13:02:25.206Z,3.90
2023-08-05T13:04:55.824Z,3.70
2023-08-05T13:07:22.953Z,4.43
2023-08-05T13:09:50.015Z,4.80
2023-08-05T13:12:17.043Z,4.40
2023-08-05T13:14:44.458Z,5.00
2023-08-05T13:17:11.781Z,4.50
2023-08-05T13:19:39.293Z,5.13
2023-08-05T13:22:06.643Z,4.03
2023-08-05T13:24:34.637Z,4.50
2023-08-05T13:27:02.962Z,4.63
2023-08-05T13:29:30.163Z,4.17
2023-08-05T13:31:57.346Z,4.77
2023-08-05T13:34:24.310Z,4.80
2023-08-05T13:36:51.562Z,4.80
2023-08-05T13:39:18.484Z,5.23
2023-08-05T13:41:45.442Z,5.13
2023-08-05T13:44:12.364Z,5.53
2023-08-05T13:46:39.364Z,6.20
2023-08-05T13:49:06.291Z,5.53
2023-08-05T13:51:33.465Z,5.77
2023-08-05T13:54:00.292Z,5.33
2023-08-05T13:56:27.509Z,5.67
2023-08-05T13:58:54.441Z,6.47
2023-08-05T14:01:21.544Z,6.03
2023-08-05T14:03:48.686Z,6.77
2023-08-05T14:06:15.985Z,8.07
2023-08-05T14:08:42.874Z,8.03
2023-08-05T14:11:09.851Z,7.43
2023-08-05T14:13:37.278Z,6.60
2023-08-05T14:16:05.129Z,7.13
2023-08-05T14:18:32.001Z,6.77
2023-08-05T14:20:58.892Z,6.07
2023-08-05T14:23:25.704Z,6.10
2023-08-05T14:25:52.576Z,6.23
2023-08-05T14:28:19.546Z,6.97
2023-08-05T14:30:46.458Z,5.87
2023-08-05T14:33:13.636Z,6.33
2023-08-05T14:35:40.514Z,6.73
2023-08-05T14:38:07.402Z,6.27
2023-08-05T14:40:37.910Z,5.83
2023-08-05T14:43:06.254Z,6.03
2023-08-05T14:45:34.912Z,5.70
2023-08-05T14:48:01.814Z,6.13
2023-08-05T14:50:28.756Z,6.10
2023-08-05T14:52:55.738Z,5.33
2023-08-05T14:55:22.703Z,5.37
2023-08-05T14:57:49.719Z,5.23
2023-08-05T15:00:16.866Z,5.27
2023-08-05T15:02:43.797Z,5.43
2023-08-05T15:05:10.860Z,5.73
2023-08-05T15:07:37.749Z,5.83
2023-08-05T15:10:05.064Z,5.87
2023-08-05T15:12:32.546Z,5.20
2023-08-05T15:14:59.478Z,5.80
2023-08-05T15:17:26.561Z,6.40
2023-08-05T15:19:54.030Z,6.53
2023-08-05T15:22:21.063Z,5.53
2023-08-05T15:24:48.520Z,5.87
2023-08-05T15:27:15.363Z,6.37
2023-08-05T15:29:42.384Z,6.63
2023-08-05T15:32:10.849Z,5.97
2023-08-05T15:34:39.840Z,5.73
2023-08-05T15:37:07.154Z,5.80
2023-08-05T15:39:34.118Z,5.83
2023-08-05T15:42:01.845Z,5.77
2023-08-05T15:44:35.092Z,5.43
2023-08-05T15:47:04.500Z,6.10
2023-08-05T15:49:31.803Z,5.60
2023-08-05T15:51:58.796Z,5.93
2023-08-05T15:54:25.654Z,5.87
2023-08-05T15:56:52.585Z,5.93
2023-08-05T15:59:19.439Z,6.00
2023-08-05T16:01:46.412Z,5.97
2023-08-05T16:04:13.345Z,5.97
2023-08-05T16:06:40.196Z,6.07
2023-08-05T16:09:07.942Z,5.53
2023-08-05T16:11:35.099Z,5.40
2023-08-05T16:14:01.973Z,4.10
2023-08-05T16:16:28.792Z,4.40
2023-08-05T16:18:55.623Z,3.53
2023-08-05T16:21:23.331Z,3.33
2023-08-05T16:23:55.258Z,3.60
2023-08-05T16:26:23.885Z,3.37
2023-08-05T16:28:51.312Z,3.30
2023-08-05T16:31:19.799Z,3.23
2023-08-05T16:33:47.312Z,3.70
2023-08-05T16:36:14.687Z,3.40
2023-08-05T16:38:45.174Z,3.23
2023-08-05T16:41:12.984Z,3.60
2023-08-05T16:43:40.267Z,3.27
2023-08-05T16:46:08.178Z,3.73
2023-08-05T16:48:35.735Z,4.73
2023-08-05T16:51:03.320Z,3.63
2023-08-05T16:53:33.673Z,3.93
2023-08-05T16:56:02.489Z,4.37
2023-08-05T16:58:29.526Z,4.33
2023-08-05T17:00:57.927Z,4.47
2023-08-05T17:03:25.105Z,4.27
2023-08-05T17:05:53.437Z,4.23
2023-08-05T17:08:20.881Z,4.47
2023-08-05T17:10:47.809Z,4.60
2023-08-05T17:13:14.724Z,4.00
2023-08-05T17:15:45.875Z,4.77
2023-08-05T17:18:13.670Z,4.70
2023-08-05T17:20:41.185Z,3.93
2023-08-05T17:23:08.153Z,4.73
2023-08-05T17:25:42.282Z,4.83
2023-08-05T17:28:09.413Z,4.53
2023-08-05T17:30:36.976Z,4.50
2023-08-05T17:33:04.313Z,5.00
2023-08-05T17:35:35.618Z,4.60
2023-08-05T17:38:03.242Z,5.40
2023-08-05T17:40:30.802Z,5.17
2023-08-05T17:42:58.278Z,4.93
2023-08-05T17:45:25.298Z,5.33
2023-08-05T17:47:52.270Z,5.17
2023-08-05T17:50:19.165Z,4.87
2023-08-05T17:52:45.980Z,5.37
2023-08-05T17:55:13.008Z,5.40
2023-08-05T17:57:39.891Z,5.40
2023-08-05T18:00:07.858Z,5.47
2023-08-05T18:02:37.108Z,6.80
2023-08-05T18:05:04.602Z,5.33
2023-08-05T18:07:31.548Z,5.57
2023-08-05T18:09:59.502Z,5.57
2023-08-05T18:12:26.531Z,5.47
2023-08-05T18:14:53.562Z,5.63
2023-08-05T18:17:20.465Z,6.43
2023-08-05T18:19:47.283Z,6.30
2023-08-05T18:22:14.182Z,5.53
2023-08-05T18:24:41.035Z,5.77
2023-08-05T18:27:07.897Z,6.13
2023-08-05T18:29:34.843Z,6.10
2023-08-05T18:32:01.735Z,6.47
2023-08-05T18:34:28.650Z,6.80
2023-08-05T18:36:55.539Z,6.50
2023-08-05T18:39:22.474Z,7.07
2023-08-05T18:41:51.442Z,5.77
2023-08-05T18:44:18.730Z,6.07
2023-08-05T18:46:45.640Z,6.23
2023-08-05T18:49:12.560Z,6.50
2023-08-05T18:51:39.461Z,6.67
2023-08-05T18:54:06.282Z,6.50
2023-08-05T18:56:33.119Z,6.97
2023-08-05T18:59:00.047Z,7.07
2023-08-05T19:01:26.951Z,6.47
2023-08-05T19:03:53.999Z,6.63
2023-08-05T19:06:20.944Z,6.83
2023-08-05T19:08:47.843Z,6.50
2023-08-05T19:11:15.975Z,6.30
2023-08-05T19:13:43.280Z,6.10
2023-08-05T19:16:10.475Z,6.23
2023-08-05T19:18:37.485Z,6.47
2023-08-05T19:21:09.170Z,6.10
2023-08-05T19:23:36.972Z,5.67
2023-08-05T19:26:07.477Z,6.90
2023-08-05T19:28:35.099Z,6.23
2023-08-05T19:31:08.406Z,6.20
2023-08-05T19:33:36.452Z,6.27
2023-08-05T19:36:14.463Z,6.40
2023-08-05T19:38:42.619Z,5.93
2023-08-05T19:41:09.878Z,6.33
2023-08-05T19:43:38.802Z,5.83
2023-08-05T19:46:10.621Z,6.33
2023-08-05T19:48:38.286Z,5.53
2023-08-05T19:51:12.798Z,5.63
2023-08-05T19:53:40.583Z,5.40
2023-08-05T19:56:07.426Z,5.07
2023-08-05T19:58:34.333Z,5.27
2023-08-05T20:01:03.354Z,5.80
2023-08-05T20:03:31.853Z,5.80
2023-08-05T20:05:58.721Z,5.30
2023-08-05T20:08:25.604Z,6.07
2023-08-05T20:10:52.787Z,5.47
2023-08-05T20:13:19.657Z,5.43
2023-08-05T20:15:46.514Z,5.70
2023-08-05T20:18:13.472Z,5.53
2023-08-05T20:20:40.320Z,5.67
2023-08-05T20:23:07.264Z,5.70
2023-08-05T20:25:36.117Z,5.10
2023-08-05T20:28:03.680Z,5.67
2023-08-05T20:30:30.582Z,5.47
2023-08-05T20:32:57.636Z,5.13
2023-08-05T20:35:24.547Z,6.03
2023-08-05T20:37:51.452Z,6.40
2023-08-05T20:40:18.491Z,5.93
2023-08-05T20:42:45.569Z,6.77
2023-08-05T20:45:12.472Z,6.40
2023-08-05T20:47:39.532Z,6.47
2023-08-05T20:50:07.317Z,6.37
2023-08-05T20:52:34.156Z,5.63
2023-08-05T20:55:01.387Z,6.77
2023-08-05T20:57:28.328Z,6.37
2023-08-05T20:59:55.162Z,6.70
2023-08-05T21:02:22.295Z,6.40
2023-08-05T21:04:49.360Z,6.40
2023-08-05T21:07:16.269Z,6.47
2023-08-05T21:09:43.065Z,5.80
2023-08-05T21:12:09.874Z,6.37
2023-08-05T21:14:36.757Z,6.30
2023-08-05T21:17:03.668Z,5.67
2023-08-05T21:19:30.508Z,6.07
2023-08-05T21:21:57.357Z,6.27
2023-08-05T21:24:24.197Z,6.10
2023-08-05T21:26:51.303Z,6.67
2023-08-05T21:30:00.596Z,6.30
2023-08-05T21:32:27.455Z,6.50
2023-08-05T21:34:54.352Z,6.47
2023-08-05T21:37:21.424Z,6.93
2023-08-05T21:39:48.358Z,6.30
2023-08-05T21:42:15.319Z,6.03
2023-08-05T21:44:42.108Z,6.60
2023-08-05T21:47:08.950Z,6.00
2023-08-05T21:49:36.447Z,6.77
2023-08-05T21:52:05.837Z,7.20
2023-08-05T21:54:32.889Z,6.87
2023-08-05T21:57:00.538Z,6.97
2023-08-05T21:59:27.463Z,6.47
2023-08-05T22:01:54.583Z,7.17
2023-08-05T22:04:21.541Z,6.27
2023-08-05T22:06:48.408Z,6.90
2023-08-05T22:09:15.270Z,6.73
2023-08-05T22:11:42.142Z,6.73
2023-08-05T22:14:09.036Z,6.43
2023-08-05T22:16:35.919Z,7.13
2023-08-05T22:19:02.775Z,6.90
2023-08-05T22:21:29.616Z,6.93
2023-08-05T22:23:56.544Z,6.77
2023-08-05T22:26:23.402Z,7.20
2023-08-05T22:28:50.180Z,7.03
2023-08-05T22:31:17.009Z,7.37
2023-08-05T22:33:43.937Z,7.23
2023-08-05T22:36:12.163Z,6.90
2023-08-05T22:38:39.511Z,7.00
2023-08-05T22:41:06.449Z,7.50
2023-08-05T22:43:33.252Z,7.73
2023-08-05T22:46:04.440Z,8.00
2023-08-05T22:48:31.383Z,7.20
2023-08-05T22:50:58.970Z,7.73
2023-08-05T22:53:25.979Z,7.30
2023-08-05T22:55:55.399Z,7.50
2023-08-05T22:58:22.285Z,7.23
2023-08-05T23:00:49.079Z,7.47
2023-08-05T23:03:15.996Z,7.00
2023-08-05T23:05:42.892Z,7.33
2023-08-05T23:08:09.712Z,7.23
2023-08-05T23:10:36.579Z,6.70
2023-08-05T23:13:03.411Z,6.80
2023-08-05T23:15:33.439Z,6.80
2023-08-05T23:18:00.527Z,7.47
2023-08-05T23:20:27.440Z,6.87
2023-08-05T23:22:54.289Z,7.10
2023-08-05T23:25:21.083Z,7.10
2023-08-05T23:27:51.191Z,6.63
2023-08-05T23:30:18.033Z,6.30
2023-08-05T23:32:45.043Z,6.53
2023-08-05T23:35:11.905Z,5.83
2023-08-05T23:37:38.681Z,7.30
2023-08-05T23:40:06.211Z,7.00
2023-08-05T23:42:33.069Z,7.17
2023-08-05T23:44:59.873Z,6.70
2023-08-05T23:47:26.706Z,7.00
2023-08-05T23:49:53.604Z,6.17
2023-08-05T23:52:20.647Z,6.10
2023-08-05T23:54:47.792Z,6.93
2023-08-05T23:57:14.640Z,5.87
2023-08-05T23:59:41.418Z,5.93
